Annapolis Junction, MD (20701)

10:56 AM EST on February 09, 2016 (GMT -0500)
North Laurel - Robinson's Promise | | Change Station
CLOSE
Current Station
Personal Weather Station
Location: Laurel, MD
Elevation: 290 ft
Nearby Weather Stations
Active Advisory: Winter Weather Advisory Active Notice: Public Information Statement

Elev 290 ft 39.13 °N, 76.84 °W | Updated 12 minutes ago

Overcast
Overcast
33.2 °F
Feels Like 33 °F
N
0.0
Wind Variable Wind from ENE

Today
High -- | Low -- °F
--% Chance of Precip.
Yesterday
High -- | Low -- °F
Precip. -- in
Pressure 29.60 in
Visibility 4.0 miles
Clouds Overcast 400 ft
Windchill 33 °F
Dew Point 33 °F
Humidity 100%
Rainfall 0.09 in
Snow Depth Not available.
7:06 AM 5:36 PM
New Moon, 1% visible
METAR KFME 091551Z AUTO 00000KT 4SM OVC004 00/00 A2960 RMK AO1
Pressure 29.60 in
Visibility 4.0 miles
Clouds Overcast 400 ft
Windchill 33 °F
Dew Point 33 °F
Humidity 100%
Rainfall 0.09 in
Snow Depth Not available.
7:06 AM 5:36 PM
New Moon, 1% visible
METAR KFME 091551Z AUTO 00000KT 4SM OVC004 00/00 A2960 RMK AO1

10-Day Weather Forecast

Almanac

Astronomy

Feb. 09, 2016 Rise Set
Actual Time
Civil Twilight
Nautical Twilight
Astronomical Twilight
Moon
Length of Visible Light
Length of Day
Tomorrow will be .
, % of the Moon is Illuminated

Today's Extremes

State Highs State Lows

Community

WunderPhotos

Upload Photos

1,891,628 photos uploaded!

WunderBlog® & News

Nearby

Air Quality

  Air Quality AQ Index Pollutant
Not available.

Snow Depth

Station Depth Elevation

Earthquake Activity

City Distance Mag. Time & Date
Minimum magnitude displayed is 2.5.

Coastal Water Temperatures

Place Temperature

Stations

Nearby Weather Stations

Station Location Temp. Windchill Dew Point Humidity Wind Precip. Elev Updated Type
                   

Watches & Warnings

Winter Weather Advisory
Issued: 7:55 AM EST Feb. 9, 2016 – National Weather Service

... Winter Weather Advisory remains in effect until midnight tonight...

* precipitation type... snow.

* Accumulations... snow accumulation of 2 to 5 inches... except 1
to 3 inches in Anne Arundel County.

* Timing... snow will continue into this evening... with periods of
heavier snow possible... mainly near the Mason-Dixon line. Snow
should taper off around midnight.

* Impacts... snow covered roads and travel disruptions possible.

* Winds... east 5 to 10 mph becoming north this afternoon.

* Temperatures... lower 30s.

Precautionary/preparedness actions...

A Winter Weather Advisory for snow means that periods of snow
will cause primarily travel difficulties. Be prepared for snow
covered roads and limited visibilities... and use caution while
driving.